createdAt,value
2019-03-13T00:00:08.408Z,8.13
2019-03-13T00:01:07.132Z,4.87
2019-03-13T00:01:58.380Z,4.78
2019-03-13T00:02:44.364Z,5.08
2019-03-13T00:03:30.656Z,5.70
2019-03-13T00:04:16.456Z,5.45
2019-03-13T00:05:03.327Z,6.62
2019-03-13T00:05:49.247Z,5.62
2019-03-13T00:06:34.973Z,4.85
2019-03-13T00:07:20.685Z,4.90
2019-03-13T00:08:06.424Z,5.60
2019-03-13T00:08:52.491Z,5.58
2019-03-13T00:09:38.131Z,4.92
2019-03-13T00:10:23.767Z,5.60
2019-03-13T00:11:09.391Z,5.20
2019-03-13T00:11:55.205Z,5.35
2019-03-13T00:12:41.425Z,6.78
2019-03-13T00:13:27.637Z,6.25
2019-03-13T00:14:13.945Z,6.50
2019-03-13T00:14:59.601Z,5.80
2019-03-13T00:15:45.405Z,4.45
2019-03-13T00:16:31.627Z,5.80
2019-03-13T00:17:17.793Z,5.37
2019-03-13T00:18:04.040Z,5.67
2019-03-13T00:18:50.114Z,5.50
2019-03-13T00:19:36.253Z,5.78
2019-03-13T00:20:21.852Z,6.65
2019-03-13T00:21:07.988Z,5.25
2019-03-13T00:21:53.630Z,4.97
2019-03-13T00:22:39.357Z,5.70
2019-03-13T00:23:25.443Z,6.42
2019-03-13T00:24:11.576Z,5.42
2019-03-13T00:24:57.766Z,4.40
2019-03-13T00:25:44.130Z,5.12
2019-03-13T00:26:30.158Z,4.58
2019-03-13T00:27:16.083Z,6.17
2019-03-13T00:28:02.084Z,4.62
2019-03-13T00:28:47.832Z,5.95
2019-03-13T00:29:34.108Z,5.42
2019-03-13T00:30:20.257Z,5.37
2019-03-13T00:31:06.127Z,4.50
2019-03-13T00:31:51.778Z,6.10
2019-03-13T00:32:37.430Z,4.92
2019-03-13T00:33:23.177Z,3.85
2019-03-13T00:34:08.791Z,5.83
2019-03-13T00:34:54.471Z,4.10
2019-03-13T00:35:40.147Z,4.17
2019-03-13T00:36:25.807Z,6.95
2019-03-13T00:37:11.600Z,4.08
2019-03-13T00:37:57.738Z,4.12
2019-03-13T00:38:43.483Z,3.65
2019-03-13T00:39:29.630Z,3.60
2019-03-13T00:40:15.531Z,4.05
2019-03-13T00:41:01.575Z,4.10
2019-03-13T00:41:47.447Z,4.85
2019-03-13T00:42:33.215Z,5.58
2019-03-13T00:43:18.901Z,5.75
2019-03-13T00:44:05.010Z,3.67
2019-03-13T00:44:51.192Z,4.72
2019-03-13T00:45:36.826Z,4.17
2019-03-13T00:46:23.022Z,6.12
2019-03-13T00:47:09.171Z,5.15
2019-03-13T00:47:54.847Z,4.15
2019-03-13T00:48:40.560Z,3.67
2019-03-13T00:49:26.678Z,3.20
2019-03-13T00:50:22.169Z,4.00
2019-03-13T00:51:08.008Z,4.03
2019-03-13T00:51:53.656Z,5.20
2019-03-13T00:52:39.297Z,4.85
2019-03-13T00:53:24.934Z,6.30
2019-03-13T00:54:11.068Z,4.65
2019-03-13T00:54:57.223Z,4.20
2019-03-13T00:55:42.910Z,3.47
2019-03-13T00:56:28.630Z,6.28
2019-03-13T00:57:14.259Z,3.35
2019-03-13T00:58:00.009Z,3.58
2019-03-13T00:58:45.680Z,5.05
2019-03-13T00:59:31.416Z,6.65
2019-03-13T01:00:33.400Z,8.65
2019-03-13T01:01:51.225Z,5.17
2019-03-13T01:02:39.607Z,3.55
2019-03-13T01:03:54.067Z,3.65
2019-03-13T01:04:44.209Z,6.22
2019-03-13T01:05:37.404Z,3.62
2019-03-13T01:06:25.967Z,4.55
2019-03-13T01:07:11.804Z,3.27
2019-03-13T01:07:57.780Z,5.42
2019-03-13T01:08:43.408Z,3.90
2019-03-13T01:09:29.127Z,3.17
2019-03-13T01:10:14.885Z,4.33
2019-03-13T01:11:00.613Z,3.70
2019-03-13T01:11:46.360Z,5.30
2019-03-13T01:12:32.607Z,4.55
2019-03-13T01:13:18.451Z,4.85
2019-03-13T01:14:04.296Z,3.37
2019-03-13T01:14:50.598Z,5.58
2019-03-13T01:15:36.700Z,3.70
2019-03-13T01:16:22.429Z,2.95
2019-03-13T01:17:08.544Z,6.05
2019-03-13T01:17:54.148Z,4.10
2019-03-13T01:18:39.791Z,4.62
2019-03-13T01:19:25.958Z,3.75
2019-03-13T01:20:12.416Z,4.40
2019-03-13T01:20:58.113Z,3.98
2019-03-13T01:21:43.769Z,4.20
2019-03-13T01:22:29.928Z,2.42
2019-03-13T01:23:15.749Z,5.08
2019-03-13T01:24:01.950Z,3.25
2019-03-13T01:24:47.844Z,8.00
2019-03-13T01:25:33.761Z,5.58
2019-03-13T01:26:20.038Z,5.30
2019-03-13T01:27:06.262Z,5.62
2019-03-13T01:27:52.055Z,5.75
2019-03-13T01:28:38.239Z,5.53
2019-03-13T01:29:24.337Z,5.47
2019-03-13T01:30:10.536Z,3.90
2019-03-13T01:31:10.166Z,6.12
2019-03-13T01:32:16.855Z,5.25
2019-03-13T01:33:06.922Z,5.62
2019-03-13T01:33:55.030Z,5.75
2019-03-13T01:35:03.696Z,3.40
2019-03-13T01:35:54.575Z,6.17
2019-03-13T01:36:40.469Z,6.95
2019-03-13T01:37:26.662Z,5.33
2019-03-13T01:38:12.792Z,5.40
2019-03-13T01:38:58.466Z,5.60
2019-03-13T01:39:47.188Z,3.92
2019-03-13T01:40:33.294Z,6.10
2019-03-13T01:41:18.973Z,5.42
2019-03-13T01:42:04.652Z,3.83
2019-03-13T01:42:50.710Z,6.55
2019-03-13T01:43:36.376Z,7.15
2019-03-13T01:44:22.106Z,4.17
2019-03-13T01:45:08.187Z,5.75
2019-03-13T01:45:54.111Z,8.60
2019-03-13T01:46:40.284Z,3.77
2019-03-13T01:47:26.154Z,6.55
2019-03-13T01:48:11.973Z,7.22
2019-03-13T01:48:58.221Z,6.95
2019-03-13T01:49:43.960Z,5.87
2019-03-13T01:50:29.562Z,10.08
2019-03-13T01:51:15.219Z,4.40
2019-03-13T01:52:00.926Z,10.05
2019-03-13T01:52:47.064Z,5.58
2019-03-13T01:53:33.211Z,7.53
2019-03-13T01:54:19.448Z,4.25
2019-03-13T01:55:05.221Z,7.37
2019-03-13T01:55:51.235Z,5.87
2019-03-13T01:56:37.399Z,4.92
2019-03-13T01:57:23.146Z,12.00
2019-03-13T01:58:08.805Z,7.78
2019-03-13T01:58:54.611Z,5.97
2019-03-13T01:59:40.906Z,6.90
2019-03-13T02:00:26.752Z,8.58
2019-03-13T02:01:12.922Z,5.10
2019-03-13T02:01:58.716Z,6.70
2019-03-13T02:02:44.883Z,4.60
2019-03-13T02:03:30.617Z,7.17
2019-03-13T02:04:16.732Z,4.87
2019-03-13T02:05:02.355Z,6.62
2019-03-13T02:05:48.494Z,7.30
2019-03-13T02:06:34.165Z,7.15
2019-03-13T02:07:20.336Z,6.08
2019-03-13T02:08:06.033Z,6.85
2019-03-13T02:08:51.700Z,7.83
2019-03-13T02:09:37.879Z,11.28
2019-03-13T02:10:23.715Z,8.18
2019-03-13T02:11:09.496Z,5.95
2019-03-13T02:11:55.164Z,4.50
2019-03-13T02:12:41.006Z,9.08
2019-03-13T02:13:26.763Z,9.83
2019-03-13T02:14:12.565Z,8.30
2019-03-13T02:14:58.715Z,9.48
2019-03-13T02:15:44.379Z,8.23
2019-03-13T02:16:30.025Z,6.15
2019-03-13T02:17:15.691Z,5.95
2019-03-13T02:18:01.919Z,8.00
2019-03-13T02:18:47.627Z,8.63
2019-03-13T02:19:33.627Z,4.97
2019-03-13T02:20:19.844Z,10.60
2019-03-13T02:21:05.469Z,8.70
2019-03-13T02:21:51.149Z,9.35
2019-03-13T02:22:36.915Z,8.83
2019-03-13T02:23:23.155Z,7.25
2019-03-13T02:24:08.848Z,9.85
2019-03-13T02:24:55.108Z,7.35
2019-03-13T02:25:40.892Z,6.60
2019-03-13T02:26:26.536Z,7.90
2019-03-13T02:27:12.121Z,9.00
2019-03-13T02:27:57.715Z,9.65
2019-03-13T02:28:43.325Z,9.55
2019-03-13T02:29:29.135Z,6.65
2019-03-13T02:30:15.277Z,7.47
2019-03-13T02:31:01.173Z,6.83
2019-03-13T02:31:46.885Z,13.13
2019-03-13T02:32:32.550Z,6.67
2019-03-13T02:33:18.692Z,10.28
2019-03-13T02:34:04.408Z,8.05
2019-03-13T02:34:50.110Z,9.50
2019-03-13T02:35:35.899Z,8.70
2019-03-13T02:36:21.800Z,7.35
2019-03-13T02:37:07.898Z,8.33
2019-03-13T02:37:53.719Z,5.60
2019-03-13T02:38:39.720Z,9.33
2019-03-13T02:39:25.499Z,9.55
2019-03-13T02:40:11.804Z,9.68
2019-03-13T02:40:57.684Z,9.18
2019-03-13T02:41:43.839Z,8.78
2019-03-13T02:42:29.457Z,9.23
2019-03-13T02:43:15.169Z,11.45
2019-03-13T02:44:01.412Z,10.53
2019-03-13T02:44:47.452Z,5.72
2019-03-13T02:45:33.085Z,8.98
2019-03-13T02:46:18.755Z,12.88
2019-03-13T02:47:04.459Z,10.75
2019-03-13T02:47:50.751Z,12.35
2019-03-13T02:48:36.978Z,11.70
2019-03-13T02:49:22.820Z,10.78
2019-03-13T02:50:09.016Z,12.37
2019-03-13T02:50:55.317Z,10.35
2019-03-13T02:51:41.450Z,7.40
2019-03-13T02:52:27.552Z,7.60
2019-03-13T02:53:13.201Z,11.10
2019-03-13T02:53:58.862Z,8.33
2019-03-13T02:54:45.005Z,9.40
2019-03-13T02:55:30.702Z,11.05
2019-03-13T02:56:16.407Z,8.85
2019-03-13T02:57:02.538Z,10.30
2019-03-13T02:57:48.226Z,6.35
2019-03-13T02:58:34.002Z,10.88
2019-03-13T02:59:19.682Z,10.23
2019-03-13T03:00:07.686Z,10.70
2019-03-13T03:01:27.816Z,9.15
2019-03-13T03:02:36.262Z,10.70
2019-03-13T03:03:33.448Z,7.28
2019-03-13T03:04:19.429Z,6.10
2019-03-13T03:05:05.716Z,7.75
2019-03-13T03:05:51.866Z,9.23
2019-03-13T03:06:37.551Z,6.70
2019-03-13T03:07:23.871Z,10.82
2019-03-13T03:08:09.593Z,10.80
2019-03-13T03:08:55.832Z,6.05
2019-03-13T03:09:41.626Z,11.20
2019-03-13T03:10:28.074Z,14.10
2019-03-13T03:11:14.263Z,8.73
2019-03-13T03:11:59.955Z,12.35
2019-03-13T03:12:46.150Z,9.53
2019-03-13T03:13:31.839Z,9.40
2019-03-13T03:14:18.027Z,11.75
2019-03-13T03:15:12.828Z,11.50
2019-03-13T03:15:58.903Z,8.83
2019-03-13T03:16:45.088Z,10.75
2019-03-13T03:17:30.873Z,12.90
2019-03-13T03:18:17.225Z,8.50
2019-03-13T03:19:02.884Z,11.57
2019-03-13T03:19:49.033Z,10.25
2019-03-13T03:20:34.670Z,12.05
2019-03-13T03:21:20.319Z,11.18
2019-03-13T03:22:06.444Z,13.48
2019-03-13T03:22:52.104Z,11.80
2019-03-13T03:23:37.729Z,10.05
2019-03-13T03:24:23.377Z,9.88
2019-03-13T03:25:09.674Z,16.93
2019-03-13T03:25:55.379Z,14.23
2019-03-13T03:26:41.025Z,10.28
2019-03-13T03:27:26.700Z,12.35
2019-03-13T03:28:12.433Z,12.50
2019-03-13T03:28:58.635Z,11.35
2019-03-13T03:29:44.966Z,14.35
2019-03-13T03:30:30.847Z,8.30
2019-03-13T03:31:16.897Z,9.00
2019-03-13T03:32:02.498Z,11.30
2019-03-13T03:32:48.156Z,9.90
2019-03-13T03:33:33.837Z,11.53
2019-03-13T03:34:19.938Z,9.98
2019-03-13T03:35:06.157Z,9.28
2019-03-13T03:35:52.310Z,10.18
2019-03-13T03:36:38.463Z,12.47
2019-03-13T03:37:24.583Z,12.55
2019-03-13T03:38:10.530Z,12.03
2019-03-13T03:38:56.453Z,9.68
2019-03-13T03:39:42.203Z,9.73
2019-03-13T03:40:27.935Z,7.37
2019-03-13T03:41:13.660Z,10.20
2019-03-13T03:41:59.816Z,9.95
2019-03-13T03:42:45.705Z,13.88
2019-03-13T03:43:39.908Z,11.85
2019-03-13T03:44:20.206Z,9.45
2019-03-13T03:45:06.575Z,8.40
2019-03-13T03:45:52.609Z,12.65
2019-03-13T03:46:38.214Z,9.78
2019-03-13T03:47:24.398Z,9.03
2019-03-13T03:48:10.569Z,12.82
2019-03-13T03:48:56.208Z,8.63
2019-03-13T03:49:41.826Z,14.13
2019-03-13T03:50:27.494Z,7.85
2019-03-13T03:51:13.814Z,14.38
2019-03-13T03:51:59.692Z,12.25
2019-03-13T03:52:45.546Z,15.80
2019-03-13T03:53:31.657Z,12.28
2019-03-13T03:54:17.350Z,10.28
2019-03-13T03:55:03.961Z,9.35
2019-03-13T03:55:49.875Z,8.83
2019-03-13T03:56:35.629Z,8.48
2019-03-13T03:57:21.948Z,7.83
2019-03-13T03:58:08.236Z,14.43
2019-03-13T03:58:54.057Z,10.70
2019-03-13T03:59:40.202Z,9.90
2019-03-13T04:00:25.807Z,10.28
2019-03-13T04:01:11.439Z,10.55
2019-03-13T04:01:57.083Z,13.78
2019-03-13T04:02:43.180Z,12.95
2019-03-13T04:03:28.845Z,11.08
2019-03-13T04:04:14.915Z,11.30
2019-03-13T04:05:01.344Z,12.37
2019-03-13T04:05:47.602Z,12.75
2019-03-13T04:06:33.537Z,11.22
2019-03-13T04:07:19.732Z,13.10
2019-03-13T04:08:05.980Z,11.30
2019-03-13T04:08:51.691Z,10.82
2019-03-13T04:09:37.479Z,13.30
2019-03-13T04:10:23.257Z,10.20
2019-03-13T04:11:09.081Z,10.45
2019-03-13T04:11:54.844Z,11.05
2019-03-13T04:12:41.219Z,11.85
2019-03-13T04:13:27.192Z,14.63
2019-03-13T04:14:13.298Z,9.53
2019-03-13T04:14:58.896Z,10.50
2019-03-13T04:15:44.710Z,11.08
2019-03-13T04:16:30.800Z,10.72
2019-03-13T04:17:16.917Z,14.65
2019-03-13T04:18:02.587Z,13.05
2019-03-13T04:18:48.771Z,14.45
2019-03-13T04:19:34.939Z,8.28
2019-03-13T04:20:20.669Z,14.95
2019-03-13T04:21:06.390Z,12.50
2019-03-13T04:21:52.169Z,12.93
2019-03-13T04:22:37.963Z,15.50
2019-03-13T04:23:24.064Z,12.45
2019-03-13T04:24:09.803Z,17.10
2019-03-13T04:25:09.692Z,18.05
2019-03-13T04:25:55.945Z,16.02
2019-03-13T04:26:44.819Z,10.15
2019-03-13T04:27:30.769Z,15.75
2019-03-13T04:28:16.974Z,9.58
2019-03-13T04:29:02.625Z,13.18
2019-03-13T04:29:48.336Z,14.87
2019-03-13T04:30:34.369Z,9.33
2019-03-13T04:31:20.720Z,10.75
2019-03-13T04:32:06.458Z,8.75
2019-03-13T04:32:52.124Z,11.03
2019-03-13T04:33:38.234Z,12.78
2019-03-13T04:34:24.768Z,15.25
2019-03-13T04:35:10.695Z,14.23
2019-03-13T04:35:56.598Z,12.28
2019-03-13T04:36:42.614Z,13.90
2019-03-13T04:37:28.353Z,14.18
2019-03-13T04:38:14.122Z,12.68
2019-03-13T04:39:01.225Z,15.30
2019-03-13T04:39:47.556Z,13.75
2019-03-13T04:40:33.698Z,15.83
2019-03-13T04:41:19.902Z,11.90
2019-03-13T04:42:05.536Z,11.55
2019-03-13T04:42:51.159Z,16.23
2019-03-13T04:43:36.787Z,15.18
2019-03-13T04:44:22.451Z,11.03
2019-03-13T04:45:08.207Z,16.75
2019-03-13T04:45:54.224Z,12.47
2019-03-13T04:46:40.418Z,14.07
2019-03-13T04:47:26.632Z,17.80
2019-03-13T04:48:12.743Z,11.43
2019-03-13T04:48:58.458Z,12.40
2019-03-13T04:49:44.155Z,13.68
2019-03-13T04:50:29.891Z,16.97
2019-03-13T04:51:15.697Z,13.68
2019-03-13T04:52:01.409Z,9.80
2019-03-13T04:52:47.040Z,12.40
2019-03-13T04:53:32.787Z,14.70
2019-03-13T04:54:18.418Z,11.80
2019-03-13T04:55:04.311Z,13.85
2019-03-13T04:55:52.527Z,14.98
2019-03-13T04:56:37.891Z,14.98
2019-03-13T04:57:23.981Z,10.85
2019-03-13T04:58:09.654Z,13.03
2019-03-13T04:58:55.351Z,11.50
2019-03-13T04:59:40.987Z,13.18
2019-03-13T05:00:26.678Z,8.65
2019-03-13T05:01:12.826Z,16.48
2019-03-13T05:01:58.594Z,11.97
2019-03-13T05:02:44.417Z,17.45
2019-03-13T05:03:30.151Z,10.98
2019-03-13T05:04:15.904Z,13.25
2019-03-13T05:05:01.534Z,13.25
2019-03-13T05:05:49.170Z,16.10
2019-03-13T05:06:34.795Z,15.20
2019-03-13T05:07:20.484Z,15.25
2019-03-13T05:08:06.219Z,10.30
2019-03-13T05:09:06.684Z,13.25
2019-03-13T05:09:52.657Z,11.03
2019-03-13T05:10:38.304Z,11.20
2019-03-13T05:11:23.946Z,18.75
2019-03-13T05:12:09.619Z,16.17
2019-03-13T05:12:55.949Z,14.28
2019-03-13T05:13:42.145Z,13.68
2019-03-13T05:14:28.409Z,14.55
2019-03-13T05:15:14.203Z,18.70
2019-03-13T05:16:00.053Z,13.95
2019-03-13T05:16:45.780Z,14.10
2019-03-13T05:17:31.399Z,14.65
2019-03-13T05:18:17.651Z,14.43
2019-03-13T05:19:03.321Z,12.10
2019-03-13T05:19:48.948Z,11.38
2019-03-13T05:20:35.158Z,13.53
2019-03-13T05:21:20.843Z,14.95
2019-03-13T05:22:07.043Z,12.58
2019-03-13T05:22:52.704Z,13.55
2019-03-13T05:23:38.338Z,23.52
2019-03-13T05:24:24.070Z,11.03
2019-03-13T05:25:09.737Z,9.70
2019-03-13T05:25:55.500Z,18.35
2019-03-13T05:26:41.644Z,12.45
2019-03-13T05:27:28.011Z,16.62
2019-03-13T05:28:13.798Z,15.83
2019-03-13T05:28:59.968Z,15.43
2019-03-13T05:29:45.641Z,16.15
2019-03-13T05:30:31.251Z,14.75
2019-03-13T05:31:16.979Z,13.15
2019-03-13T05:32:02.627Z,13.15
2019-03-13T05:32:48.345Z,14.98
2019-03-13T05:33:34.581Z,16.07
2019-03-13T05:34:20.695Z,18.40
2019-03-13T05:35:06.955Z,12.55
2019-03-13T05:35:53.004Z,10.40
2019-03-13T05:36:38.797Z,15.10
2019-03-13T05:37:24.854Z,17.57
2019-03-13T05:38:10.700Z,12.63
2019-03-13T05:38:56.569Z,16.95
2019-03-13T05:39:43.912Z,15.30
2019-03-13T05:40:29.680Z,13.20
2019-03-13T05:41:15.935Z,14.98
2019-03-13T05:42:01.697Z,16.05
2019-03-13T05:42:47.383Z,11.80
2019-03-13T05:43:33.127Z,14.47
2019-03-13T05:44:19.239Z,14.25
2019-03-13T05:45:08.171Z,13.13
2019-03-13T05:45:53.005Z,11.78
2019-03-13T05:46:39.179Z,13.75
2019-03-13T05:47:25.339Z,13.90
2019-03-13T05:48:11.050Z,17.60
2019-03-13T05:48:57.175Z,15.72
2019-03-13T05:49:42.856Z,18.65
2019-03-13T05:50:31.360Z,17.55
2019-03-13T05:51:16.159Z,19.50
2019-03-13T05:52:01.794Z,17.98
2019-03-13T05:52:47.944Z,13.22
2019-03-13T05:53:34.099Z,13.58
2019-03-13T05:54:20.269Z,18.40
2019-03-13T05:55:06.071Z,16.42
2019-03-13T05:55:52.388Z,19.52
2019-03-13T05:56:40.766Z,14.35
2019-03-13T05:57:26.427Z,15.78
2019-03-13T05:58:12.172Z,18.50
2019-03-13T05:58:58.158Z,13.28
2019-03-13T05:59:44.120Z,9.80
2019-03-13T06:00:29.902Z,17.48
2019-03-13T06:01:15.634Z,15.48
2019-03-13T06:02:06.092Z,15.05
2019-03-13T06:02:52.199Z,13.10
2019-03-13T06:03:37.956Z,16.97
2019-03-13T06:04:24.176Z,16.65
2019-03-13T06:05:09.948Z,12.58
2019-03-13T06:05:55.955Z,12.65
2019-03-13T06:06:42.125Z,12.47
2019-03-13T06:07:27.866Z,18.37
2019-03-13T06:08:14.069Z,19.42
2019-03-13T06:09:00.221Z,19.45
2019-03-13T06:09:46.381Z,16.35
2019-03-13T06:10:32.586Z,18.85
2019-03-13T06:11:18.764Z,12.55
2019-03-13T06:12:04.875Z,13.15
2019-03-13T06:12:50.611Z,17.10
2019-03-13T06:13:36.712Z,15.95
2019-03-13T06:14:23.001Z,15.45
2019-03-13T06:15:09.373Z,11.65
2019-03-13T06:15:55.406Z,15.70
2019-03-13T06:16:41.233Z,12.47
2019-03-13T06:17:27.503Z,19.73
2019-03-13T06:18:13.751Z,11.12
2019-03-13T06:18:59.523Z,13.62
2019-03-13T06:19:45.212Z,12.53
2019-03-13T06:20:31.433Z,15.10
2019-03-13T06:21:17.120Z,15.58
2019-03-13T06:22:02.794Z,16.48
2019-03-13T06:22:49.002Z,12.10
2019-03-13T06:23:34.691Z,19.10
2019-03-13T06:24:20.275Z,14.20
2019-03-13T06:25:07.141Z,14.25
2019-03-13T06:25:53.026Z,15.15
2019-03-13T06:26:38.727Z,18.55
2019-03-13T06:27:24.971Z,17.87
2019-03-13T06:28:11.134Z,14.80
2019-03-13T06:28:57.017Z,16.52
2019-03-13T06:29:42.701Z,14.68
2019-03-13T06:30:28.498Z,11.18
2019-03-13T06:31:14.759Z,14.80
2019-03-13T06:32:00.759Z,17.70
2019-03-13T06:32:46.676Z,12.65
2019-03-13T06:33:32.742Z,19.27
2019-03-13T06:34:18.390Z,19.07
2019-03-13T06:35:04.563Z,14.18
2019-03-13T06:35:50.210Z,14.90
2019-03-13T06:36:36.354Z,13.80
2019-03-13T06:37:22.032Z,12.65
2019-03-13T06:38:08.187Z,13.90
2019-03-13T06:38:53.881Z,16.37
2019-03-13T06:39:39.550Z,17.80
2019-03-13T06:40:25.226Z,20.85
2019-03-13T06:41:11.363Z,18.00
2019-03-13T06:41:57.108Z,14.87
2019-03-13T06:42:42.975Z,10.55
2019-03-13T06:43:29.268Z,13.65
2019-03-13T06:44:15.050Z,11.78
2019-03-13T06:45:00.774Z,15.68
2019-03-13T06:45:46.829Z,12.45
2019-03-13T06:46:32.478Z,9.35
2019-03-13T06:47:18.122Z,18.35
2019-03-13T06:48:03.855Z,13.75
2019-03-13T06:48:49.587Z,16.65
2019-03-13T06:49:35.910Z,14.30
2019-03-13T06:50:22.025Z,15.50
2019-03-13T06:51:08.193Z,13.68
2019-03-13T06:51:53.963Z,16.40
2019-03-13T06:52:39.686Z,14.68
2019-03-13T06:53:25.437Z,11.10
2019-03-13T06:54:11.751Z,18.62
2019-03-13T06:54:58.008Z,16.85
2019-03-13T06:55:43.791Z,14.30
2019-03-13T06:56:29.618Z,13.72
2019-03-13T06:57:15.232Z,13.55
2019-03-13T06:58:00.903Z,16.40
2019-03-13T06:59:18.240Z,12.18
2019-03-13T07:00:28.486Z,13.75
2019-03-13T07:01:35.876Z,17.10
2019-03-13T07:02:31.565Z,13.95
2019-03-13T07:03:35.984Z,13.05
2019-03-13T07:04:41.178Z,11.25
2019-03-13T07:05:39.522Z,11.28
2019-03-13T07:06:33.322Z,15.13
2019-03-13T07:07:38.836Z,14.40
2019-03-13T07:08:49.919Z,19.92
2019-03-13T07:10:01.331Z,16.50
2019-03-13T07:11:05.539Z,12.45
2019-03-13T07:12:09.380Z,13.80
2019-03-13T07:13:17.071Z,14.18
2019-03-13T07:14:13.760Z,16.90
2019-03-13T07:15:19.044Z,14.63
2019-03-13T07:16:23.255Z,18.02
2019-03-13T07:17:25.381Z,13.45
2019-03-13T07:18:30.755Z,17.92
2019-03-13T07:19:47.812Z,13.80
2019-03-13T07:20:53.265Z,13.93
2019-03-13T07:21:55.911Z,12.85
2019-03-13T07:23:01.214Z,13.38
2019-03-13T07:23:55.556Z,15.03
2019-03-13T07:25:00.170Z,11.68
2019-03-13T07:26:00.906Z,10.95
2019-03-13T07:27:09.479Z,16.32
2019-03-13T07:28:13.295Z,13.43
2019-03-13T07:29:12.827Z,12.58
2019-03-13T07:30:16.786Z,13.58
2019-03-13T07:31:34.053Z,13.30
2019-03-13T07:32:56.594Z,12.60
2019-03-13T07:33:52.735Z,14.05
2019-03-13T07:35:06.828Z,15.93
2019-03-13T07:36:06.186Z,12.15
2019-03-13T07:37:23.802Z,14.28
2019-03-13T07:38:34.303Z,12.00
2019-03-13T07:39:42.703Z,16.93
2019-03-13T07:40:46.346Z,16.42
2019-03-13T07:41:50.229Z,9.18
2019-03-13T07:43:05.087Z,12.25
2019-03-13T07:44:13.338Z,14.98
2019-03-13T07:45:11.314Z,11.95
2019-03-13T07:46:32.246Z,13.45
2019-03-13T07:47:35.723Z,9.90
2019-03-13T07:48:36.250Z,14.03
2019-03-13T07:49:48.119Z,15.78
2019-03-13T07:50:59.456Z,10.70
2019-03-13T07:52:03.398Z,14.38
2019-03-13T07:53:02.910Z,12.50
2019-03-13T07:54:08.672Z,13.35
2019-03-13T07:55:08.355Z,10.63
2019-03-13T07:56:23.112Z,12.63
2019-03-13T07:57:30.728Z,13.28
2019-03-13T07:58:39.186Z,14.23
2019-03-13T07:59:47.288Z,10.88
2019-03-13T08:00:52.549Z,11.18
2019-03-13T08:02:00.960Z,10.50
2019-03-13T08:03:09.343Z,13.38
2019-03-13T08:04:05.218Z,11.95
2019-03-13T08:04:56.990Z,14.00
2019-03-13T08:06:00.982Z,11.90
2019-03-13T08:06:58.395Z,14.10
2019-03-13T08:07:56.401Z,9.38
2019-03-13T08:09:00.180Z,20.30
2019-03-13T08:10:02.438Z,14.87
2019-03-13T08:11:13.627Z,11.40
2019-03-13T08:12:17.403Z,16.55
2019-03-13T08:13:21.782Z,11.05
2019-03-13T08:14:30.248Z,8.95
2019-03-13T08:15:29.393Z,15.05
2019-03-13T08:16:46.406Z,10.38
2019-03-13T08:17:54.758Z,11.40
2019-03-13T08:19:02.659Z,11.38
2019-03-13T08:20:10.955Z,11.78
2019-03-13T08:21:16.415Z,11.97
2019-03-13T08:22:20.271Z,11.12
2019-03-13T08:23:24.017Z,17.42
2019-03-13T08:24:28.436Z,9.08
2019-03-13T08:25:27.147Z,8.80
2019-03-13T08:26:38.768Z,14.05
2019-03-13T08:27:42.289Z,12.28
2019-03-13T08:28:55.376Z,14.80
2019-03-13T08:29:57.019Z,13.35
2019-03-13T08:30:56.447Z,8.73
2019-03-13T08:31:54.936Z,10.98
2019-03-13T08:32:49.301Z,11.60
2019-03-13T08:34:05.297Z,10.63
2019-03-13T08:35:12.102Z,14.68
2019-03-13T08:36:20.556Z,13.20
2019-03-13T08:37:13.661Z,9.03
2019-03-13T08:38:11.249Z,9.15
2019-03-13T08:39:09.596Z,9.13
2019-03-13T08:40:13.631Z,13.55
2019-03-13T08:41:06.933Z,12.53
2019-03-13T08:42:24.351Z,10.63
2019-03-13T08:43:28.196Z,8.78
2019-03-13T08:44:30.491Z,13.25
2019-03-13T08:45:30.843Z,7.60
2019-03-13T08:46:42.382Z,10.78
2019-03-13T08:47:59.767Z,13.38
2019-03-13T08:48:56.835Z,11.60
2019-03-13T08:50:17.255Z,15.40
2019-03-13T08:51:22.601Z,10.08
2019-03-13T08:52:26.203Z,8.55
2019-03-13T08:53:31.637Z,10.50
2019-03-13T08:54:43.325Z,11.28
2019-03-13T08:55:48.321Z,9.40
2019-03-13T08:56:55.556Z,11.73
2019-03-13T08:57:56.530Z,7.42
2019-03-13T08:58:55.318Z,12.13
2019-03-13T08:59:59.615Z,12.28
2019-03-13T09:01:19.968Z,13.30
2019-03-13T09:02:34.348Z,9.85
2019-03-13T09:03:33.972Z,14.70
2019-03-13T09:04:45.151Z,13.03
2019-03-13T09:05:53.203Z,10.82
2019-03-13T09:06:49.730Z,9.23
2019-03-13T09:07:43.918Z,11.43
2019-03-13T09:08:47.202Z,11.35
2019-03-13T09:09:44.343Z,14.95
2019-03-13T09:10:49.771Z,12.05
2019-03-13T09:11:55.062Z,8.85
2019-03-13T09:13:03.760Z,10.23
2019-03-13T09:14:03.911Z,11.43
2019-03-13T09:15:07.841Z,11.95
2019-03-13T09:16:19.544Z,10.38
2019-03-13T09:17:23.906Z,10.08
2019-03-13T09:18:17.791Z,10.45
2019-03-13T09:19:18.396Z,10.43
2019-03-13T09:20:24.682Z,15.93
2019-03-13T09:21:25.306Z,12.60
2019-03-13T09:22:36.788Z,14.70
2019-03-13T09:23:38.971Z,9.43
2019-03-13T09:24:42.597Z,10.32
2019-03-13T09:25:46.596Z,11.75
2019-03-13T09:26:45.678Z,11.08
2019-03-13T09:27:50.043Z,11.38
2019-03-13T09:28:58.443Z,15.18
2019-03-13T09:30:03.977Z,12.00
2019-03-13T09:31:02.130Z,8.98
2019-03-13T09:32:06.508Z,11.33
2019-03-13T09:33:23.817Z,14.55
2019-03-13T09:34:27.500Z,20.20
2019-03-13T09:35:34.214Z,12.45
2019-03-13T09:36:35.989Z,9.78
2019-03-13T09:37:40.008Z,17.45
2019-03-13T09:38:40.630Z,9.35
2019-03-13T09:39:52.156Z,12.75
2019-03-13T09:41:06.661Z,12.60
2019-03-13T09:42:07.563Z,10.85
2019-03-13T09:43:18.942Z,11.75
2019-03-13T09:44:22.914Z,10.53
2019-03-13T09:45:31.039Z,11.70
2019-03-13T09:46:30.201Z,16.32
2019-03-13T09:47:25.079Z,17.12
2019-03-13T09:48:42.794Z,15.83
2019-03-13T09:50:03.249Z,12.00
2019-03-13T09:51:07.302Z,13.28
2019-03-13T09:52:06.354Z,11.55
2019-03-13T09:53:01.408Z,16.42
2019-03-13T09:54:07.016Z,13.88
2019-03-13T09:55:10.495Z,12.05
2019-03-13T09:56:14.551Z,12.93
2019-03-13T09:57:25.840Z,12.60
2019-03-13T09:58:43.075Z,10.10
2019-03-13T09:59:44.310Z,10.65
2019-03-13T10:00:51.822Z,10.72
2019-03-13T10:02:00.389Z,10.28
2019-03-13T10:03:05.747Z,12.95
2019-03-13T10:04:09.784Z,10.20
2019-03-13T10:05:21.318Z,12.00
2019-03-13T10:06:31.360Z,7.97
2019-03-13T10:07:42.358Z,10.93
2019-03-13T10:08:47.861Z,11.85
2019-03-13T10:09:53.192Z,16.65
2019-03-13T10:11:04.031Z,10.60
2019-03-13T10:12:13.795Z,8.68
2019-03-13T10:13:18.023Z,9.75
2019-03-13T10:14:12.585Z,11.15
2019-03-13T10:15:04.016Z,12.35
2019-03-13T10:16:15.301Z,8.18
2019-03-13T10:17:12.931Z,14.45
2019-03-13T10:18:14.133Z,15.03
2019-03-13T10:19:25.388Z,12.40
2019-03-13T10:20:34.610Z,9.95
2019-03-13T10:21:38.423Z,12.78
2019-03-13T10:22:34.632Z,13.70
2019-03-13T10:23:41.588Z,10.90
2019-03-13T10:24:35.011Z,11.55
2019-03-13T10:25:39.067Z,11.95
2019-03-13T10:26:50.702Z,14.33
2019-03-13T10:27:54.640Z,12.68
2019-03-13T10:28:59.875Z,13.18
2019-03-13T10:30:03.944Z,9.70
2019-03-13T10:31:08.413Z,8.95
2019-03-13T10:32:03.341Z,13.18
2019-03-13T10:33:18.079Z,11.35
2019-03-13T10:34:23.523Z,10.28
2019-03-13T10:35:16.483Z,9.65
2019-03-13T10:36:21.994Z,16.45
2019-03-13T10:37:13.279Z,11.38
2019-03-13T10:38:14.259Z,12.98
2019-03-13T10:39:17.107Z,12.05
2019-03-13T10:40:20.946Z,13.28
2019-03-13T10:41:28.362Z,9.88
2019-03-13T10:42:33.878Z,11.15
2019-03-13T10:43:57.534Z,9.63
2019-03-13T10:45:08.583Z,8.78
2019-03-13T10:46:06.822Z,10.95
2019-03-13T10:46:58.507Z,9.90
2019-03-13T10:47:49.486Z,9.50
2019-03-13T10:49:00.082Z,16.15
2019-03-13T10:50:23.724Z,10.38
2019-03-13T10:51:24.989Z,9.50
2019-03-13T10:52:33.483Z,9.45
2019-03-13T10:53:44.397Z,8.35
2019-03-13T10:54:49.787Z,7.92
2019-03-13T10:56:01.575Z,9.08
2019-03-13T10:57:24.827Z,8.10
2019-03-13T10:58:17.137Z,11.85
2019-03-13T10:59:24.442Z,8.88
2019-03-13T11:00:26.195Z,9.68
2019-03-13T11:01:31.392Z,7.60
2019-03-13T11:02:42.138Z,9.20
2019-03-13T11:03:56.253Z,9.05
2019-03-13T11:04:55.965Z,7.80
2019-03-13T11:06:19.600Z,13.08
2019-03-13T11:07:23.136Z,9.83
2019-03-13T11:08:23.239Z,6.55
2019-03-13T11:09:28.572Z,5.70
2019-03-13T11:10:33.936Z,8.88
2019-03-13T11:11:47.837Z,11.68
2019-03-13T11:12:50.869Z,10.40
2019-03-13T11:13:56.215Z,4.60
2019-03-13T11:14:59.742Z,9.38
2019-03-13T11:15:57.428Z,9.08
2019-03-13T11:17:20.484Z,8.85
2019-03-13T11:18:22.490Z,11.20
2019-03-13T11:19:21.840Z,7.90
2019-03-13T11:20:27.849Z,13.22
2019-03-13T11:21:24.799Z,9.53
2019-03-13T11:22:42.266Z,9.00